Time;durP1;ratioP1;P1;durP2;ratioP2;P2;SDS_P1;SDS_P2;PMS_P1;PMS_P2;Temp;Humidity;BMP_temperature;BMP_pressure;BME280_temperature;BME280_humidity;BME280_pressure;Samples;Min_cycle;Max_cycle;Signal;HPM_P1;HPM_P2
2023/07/15 00:00:36;;;;;;;11.85;10.18;;;615.30;2432.00;;;;;;5097075;28;20031;-82
2023/07/15 00:03:03;;;;;;;12.98;9.75;;;615.20;2432.00;;;;;;5095610;28;20035;-82
2023/07/15 00:05:37;;;;;;;14.52;10.00;;;615.30;2432.00;;;;;;5112395;28;20060;-82
2023/07/15 00:08:05;;;;;;;14.93;10.05;;;615.20;2432.00;;;;;;5095046;28;20074;-81
2023/07/15 00:10:36;;;;;;;13.80;9.70;;;615.10;2432.00;;;;;;5095134;28;20403;-82
2023/07/15 00:13:02;;;;;;;15.48;10.18;;;615.10;2432.00;;;;;;5096212;28;20433;-84
2023/07/15 00:15:29;;;;;;;11.23;9.90;;;615.10;2432.00;;;;;;5095552;28;20127;-82
2023/07/15 00:17:54;;;;;;;12.35;10.77;;;615.00;2432.00;;;;;;5095689;28;20410;-83
2023/07/15 00:20:20;;;;;;;12.13;10.32;;;615.00;2432.00;;;;;;5095047;28;20073;-83
2023/07/15 00:22:47;;;;;;;11.63;9.45;;;615.10;2432.00;;;;;;5095140;28;20020;-82
2023/07/15 00:25:16;;;;;;;11.57;10.38;;;615.00;2432.00;;;;;;5095356;28;20024;-83
2023/07/15 00:27:43;;;;;;;11.82;9.80;;;615.00;2432.00;;;;;;5094607;28;20013;-80
2023/07/15 00:30:13;;;;;;;11.95;10.48;;;614.90;2432.00;;;;;;5096450;28;20024;-82
2023/07/15 00:32:45;;;;;;;11.57;10.02;;;614.90;2432.00;;;;;;5094849;28;20030;-83
2023/07/15 00:35:31;;;;;;;16.83;11.63;;;615.00;2432.00;;;;;;5095488;28;20093;-81
2023/07/15 00:37:58;;;;;;;11.57;9.68;;;615.10;2432.00;;;;;;5095075;28;20031;-82
2023/07/15 00:40:24;;;;;;;10.65;9.38;;;615.20;2432.00;;;;;;5094988;28;20048;-82
2023/07/15 00:42:52;;;;;;;10.27;9.07;;;615.20;2432.00;;;;;;5095159;28;20060;-82
2023/07/15 00:45:18;;;;;;;10.52;9.50;;;615.20;2432.00;;;;;;5096342;28;20059;-81
2023/07/15 00:48:11;;;;;;;10.73;9.65;;;615.10;2432.00;;;;;;5100453;28;20464;-82
2023/07/15 00:50:42;;;;;;;13.75;9.60;;;615.00;2432.00;;;;;;5101370;28;20087;-81
2023/07/15 00:53:09;;;;;;;12.27;9.83;;;614.90;2432.00;;;;;;5101003;28;20032;-82
2023/07/15 00:55:36;;;;;;;11.40;10.20;;;614.80;2432.00;;;;;;5097298;28;20036;-81
2023/07/15 00:58:03;;;;;;;10.63;9.63;;;614.70;2432.00;;;;;;5094519;28;20065;-83
2023/07/15 01:00:30;;;;;;;11.43;9.73;;;614.70;2432.00;;;;;;5094212;28;20034;-83
2023/07/15 01:02:56;;;;;;;14.68;10.73;;;614.70;2432.00;;;;;;5094487;28;20024;-82
2023/07/15 01:05:22;;;;;;;11.23;10.10;;;614.70;2432.00;;;;;;5095564;28;20039;-81
2023/07/15 01:07:48;;;;;;;12.02;10.45;;;614.40;2432.00;;;;;;5093448;28;20028;-81
2023/07/15 01:10:15;;;;;;;15.20;10.73;;;589.70;2432.00;;;;;;5094213;28;20055;-82
2023/07/15 01:12:41;;;;;;;16.60;10.75;;;589.50;2432.00;;;;;;5093380;28;20429;-82
2023/07/15 01:15:07;;;;;;;12.73;10.50;;;589.60;2432.00;;;;;;5093935;28;20111;-81
2023/07/15 01:17:32;;;;;;;15.80;10.60;;;589.70;2432.00;;;;;;5095116;28;20055;-82
2023/07/15 01:19:58;;;;;;;14.73;11.15;;;589.70;2432.00;;;;;;5095360;28;20020;-83
2023/07/15 01:22:25;;;;;;;11.25;9.75;;;589.70;2432.00;;;;;;5092984;28;20024;-82
2023/07/15 01:24:51;;;;;;;12.35;10.20;;;589.60;2432.00;;;;;;5111050;28;20028;-82
2023/07/15 01:27:18;;;;;;;11.75;10.52;;;589.70;2432.00;;;;;;5093898;28;20055;-82
2023/07/15 01:29:44;;;;;;;11.40;9.57;;;614.40;2432.00;;;;;;5094164;28;20020;-82
2023/07/15 01:32:10;;;;;;;12.10;10.77;;;614.50;2432.00;;;;;;5110828;28;20034;-84
2023/07/15 01:34:36;;;;;;;12.05;10.25;;;614.50;2432.00;;;;;;5094063;28;20031;-82
2023/07/15 01:37:03;;;;;;;10.88;9.82;;;614.40;2432.00;;;;;;5093551;28;20460;-82
2023/07/15 01:39:29;;;;;;;11.73;10.30;;;589.70;2432.00;;;;;;5110651;28;20077;-82
2023/07/15 01:41:55;;;;;;;12.73;11.43;;;589.20;2432.00;;;;;;5094700;28;20024;-82
2023/07/15 01:44:23;;;;;;;14.40;11.48;;;589.70;2432.00;;;;;;5093518;28;20106;-81
2023/07/15 01:46:49;;;;;;;14.98;12.90;;;614.50;2432.00;;;;;;5093624;28;20471;-82
2023/07/15 01:49:15;;;;;;;18.27;13.45;;;614.40;2432.00;;;;;;5093930;28;20246;-81
2023/07/15 01:51:40;;;;;;;17.70;13.13;;;589.70;2432.00;;;;;;5093254;28;20451;-81
2023/07/15 01:54:06;;;;;;;19.20;14.45;;;589.70;2432.00;;;;;;5093393;28;20024;-80
2023/07/15 01:56:32;;;;;;;18.13;14.60;;;589.70;2432.00;;;;;;5093111;28;20032;-83
2023/07/15 01:58:58;;;;;;;21.83;14.68;;;614.50;2432.00;;;;;;5094252;28;20510;-83
2023/07/15 02:01:25;;;;;;;19.58;15.77;;;614.40;2432.00;;;;;;5093495;28;20430;-82
2023/07/15 02:03:50;;;;;;;19.00;15.93;;;589.70;2432.00;;;;;;5093041;28;20028;-80
2023/07/15 02:06:16;;;;;;;18.27;14.63;;;589.60;2432.00;;;;;;5093133;28;20168;-81
2023/07/15 02:08:42;;;;;;;19.52;13.60;;;589.70;2432.00;;;;;;5092379;28;20024;-80
2023/07/15 02:11:08;;;;;;;15.52;12.10;;;589.70;2432.00;;;;;;5094459;28;20482;-79
2023/07/15 02:13:34;;;;;;;19.58;13.85;;;589.70;2432.00;;;;;;5093055;28;20032;-81
2023/07/15 02:15:59;;;;;;;17.80;13.52;;;589.70;2432.00;;;;;;5093147;28;20034;-81
2023/07/15 02:18:25;;;;;;;19.50;13.93;;;589.70;2432.00;;;;;;5092720;28;20065;-81
2023/07/15 02:20:52;;;;;;;19.52;14.52;;;589.50;2432.00;;;;;;5093079;28;20111;-82
2023/07/15 02:23:17;;;;;;;18.52;15.68;;;589.30;2432.00;;;;;;5093074;28;20024;-82
2023/07/15 02:25:43;;;;;;;18.98;15.73;;;589.20;2432.00;;;;;;5092873;28;20131;-82
2023/07/15 02:28:09;;;;;;;22.23;15.98;;;589.10;2432.00;;;;;;5093575;28;20074;-80
2023/07/15 02:30:35;;;;;;;17.95;15.02;;;589.20;2432.00;;;;;;5088621;28;20500;-81
2023/07/15 02:33:01;;;;;;;18.45;15.27;;;589.20;2432.00;;;;;;5089239;28;20470;-81
2023/07/15 02:35:27;;;;;;;19.90;15.00;;;589.30;2432.00;;;;;;5095419;28;20012;-80
2023/07/15 02:37:55;;;;;;;17.25;14.85;;;589.30;2432.00;;;;;;5112421;28;20013;-81
2023/07/15 02:40:20;;;;;;;21.85;14.82;;;589.40;2432.00;;;;;;5089104;28;20150;-80
2023/07/15 02:42:46;;;;;;;20.83;14.07;;;589.30;2432.00;;;;;;5089440;28;20048;-80
2023/07/15 02:45:15;;;;;;;19.42;14.57;;;589.30;2432.00;;;;;;5089088;28;20029;-80
2023/07/15 02:47:41;;;;;;;17.27;14.27;;;589.40;2432.00;;;;;;5089258;28;20046;-80
2023/07/15 02:50:08;;;;;;;17.60;15.18;;;589.40;2432.00;;;;;;5073315;28;20539;-82
2023/07/15 02:52:36;;;;;;;16.95;13.02;;;589.40;2432.00;;;;;;5089012;28;20476;-80
2023/07/15 02:55:09;;;;;;;16.98;14.75;;;589.40;2432.00;;;;;;5081157;28;20028;-80
2023/07/15 02:57:35;;;;;;;20.10;14.70;;;589.60;2432.00;;;;;;5092643;28;20114;-80
2023/07/15 03:00:04;;;;;;;14.48;12.00;;;589.50;2432.00;;;;;;5083490;28;20362;-80
2023/07/15 03:02:30;;;;;;;15.40;11.88;;;589.40;2432.00;;;;;;5073505;28;20119;-80
2023/07/15 03:04:56;;;;;;;17.98;14.70;;;589.30;2432.00;;;;;;5072376;28;20107;-79
2023/07/15 03:07:22;;;;;;;15.05;13.52;;;589.20;2432.00;;;;;;5070737;28;20075;-81
2023/07/15 03:09:47;;;;;;;17.20;13.60;;;589.00;2432.00;;;;;;5071483;28;20052;-80
2023/07/15 03:12:13;;;;;;;16.55;14.10;;;589.00;2432.00;;;;;;5072301;28;20028;-80
2023/07/15 03:14:41;;;;;;;17.25;13.02;;;589.00;2432.00;;;;;;5071928;28;20427;-80
2023/07/15 03:17:08;;;;;;;16.98;14.18;;;589.20;2432.00;;;;;;5072277;28;20028;-80
2023/07/15 03:19:34;;;;;;;16.40;14.73;;;589.00;2432.00;;;;;;5073061;28;20392;-81
2023/07/15 03:21:59;;;;;;;15.27;13.43;;;564.10;2432.00;;;;;;5071897;28;20036;-80
2023/07/15 03:24:25;;;;;;;18.17;14.00;;;564.00;2432.00;;;;;;5072151;28;20130;-83
2023/07/15 03:26:53;;;;;;;16.10;12.65;;;588.80;2432.00;;;;;;5073305;28;20388;-81
2023/07/15 03:29:23;;;;;;;18.60;14.50;;;588.80;2432.00;;;;;;5071102;28;20452;-80
2023/07/15 03:31:49;;;;;;;15.65;14.05;;;564.10;2432.00;;;;;;5072111;28;20025;-83
2023/07/15 03:34:15;;;;;;;19.95;14.20;;;564.10;2432.00;;;;;;5071728;28;20063;-81
2023/07/15 03:36:40;;;;;;;17.42;14.15;;;588.80;2432.00;;;;;;5073705;28;20100;-81
2023/07/15 03:39:06;;;;;;;16.85;14.32;;;588.90;2432.00;;;;;;5071956;28;20025;-80
2023/07/15 03:41:33;;;;;;;17.52;13.75;;;588.80;2432.00;;;;;;5072010;28;20024;-80
2023/07/15 03:43:59;;;;;;;19.75;14.00;;;564.10;2432.00;;;;;;5073084;28;20057;-82
2023/07/15 03:46:24;;;;;;;16.25;14.43;;;588.80;2432.00;;;;;;5073807;28;20056;-79
2023/07/15 03:48:50;;;;;;;19.33;13.50;;;588.80;2432.00;;;;;;5074798;28;20441;-81
2023/07/15 03:51:16;;;;;;;19.52;13.98;;;588.90;2432.00;;;;;;5075621;28;20452;-80
2023/07/15 03:53:41;;;;;;;15.88;12.98;;;589.00;2432.00;;;;;;5077006;28;20135;-81
2023/07/15 03:56:07;;;;;;;17.85;14.15;;;589.10;2432.00;;;;;;5075283;28;20028;-82
2023/07/15 03:58:33;;;;;;;15.70;13.75;;;589.20;2432.00;;;;;;5075375;28;20024;-81
2023/07/15 04:00:59;;;;;;;17.42;12.73;;;589.20;2432.00;;;;;;5075581;28;20358;-81
2023/07/15 04:03:24;;;;;;;16.45;13.13;;;589.30;2432.00;;;;;;5074898;28;20048;-81
2023/07/15 04:05:51;;;;;;;16.17;12.88;;;589.20;2432.00;;;;;;5076598;28;20039;-83
2023/07/15 04:08:16;;;;;;;16.02;13.68;;;589.20;2432.00;;;;;;5080663;28;20357;-80
2023/07/15 04:10:46;;;;;;;18.70;12.55;;;588.80;2432.00;;;;;;5096580;28;20055;-79
2023/07/15 04:13:12;;;;;;;15.82;13.05;;;588.80;2432.00;;;;;;5096659;28;20039;-81
2023/07/15 04:15:38;;;;;;;12.93;11.63;;;589.00;2432.00;;;;;;5095476;28;20024;-82
2023/07/15 04:18:04;;;;;;;13.50;11.90;;;588.80;2432.00;;;;;;5095095;28;20021;-80
2023/07/15 04:20:30;;;;;;;14.35;11.50;;;588.90;2432.00;;;;;;5096862;28;20410;-80
2023/07/15 04:22:55;;;;;;;12.60;11.30;;;588.90;2432.00;;;;;;5095514;28;20052;-79
2023/07/15 04:25:21;;;;;;;13.90;10.88;;;589.00;2432.00;;;;;;5094871;28;20456;-81
2023/07/15 04:27:47;;;;;;;13.20;10.73;;;589.00;2432.00;;;;;;5096131;28;20020;-81
2023/07/15 04:30:13;;;;;;;15.00;11.82;;;589.00;2432.00;;;;;;5094283;28;20024;-81
2023/07/15 04:32:39;;;;;;;13.52;11.38;;;589.10;2432.00;;;;;;5096108;28;20032;-79
2023/07/15 04:35:05;;;;;;;14.10;12.52;;;589.10;2432.00;;;;;;5095129;28;20020;-82
2023/07/15 04:37:31;;;;;;;15.40;11.75;;;589.00;2432.00;;;;;;5094674;28;20478;-82
2023/07/15 04:39:56;;;;;;;14.65;12.30;;;589.00;2432.00;;;;;;5094951;28;20024;-80
2023/07/15 04:42:22;;;;;;;15.13;11.43;;;589.00;2432.00;;;;;;5094895;28;20418;-81
2023/07/15 04:44:48;;;;;;;13.57;11.57;;;589.00;2432.00;;;;;;5094465;28;20020;-81
2023/07/15 04:47:14;;;;;;;13.73;11.90;;;589.00;2432.00;;;;;;5094895;28;20024;-81
2023/07/15 04:49:40;;;;;;;13.48;11.32;;;589.20;2432.00;;;;;;5094349;28;20030;-81
2023/07/15 04:52:06;;;;;;;13.88;11.77;;;589.10;2432.00;;;;;;5095338;28;20055;-80
2023/07/15 04:54:32;;;;;;;12.48;11.27;;;589.20;2432.00;;;;;;5094701;28;20024;-81
2023/07/15 04:56:58;;;;;;;12.88;11.65;;;589.20;2432.00;;;;;;5093820;28;20032;-82
2023/07/15 04:59:24;;;;;;;14.95;11.82;;;589.10;2432.00;;;;;;5094848;28;20032;-80
2023/07/15 05:01:49;;;;;;;13.60;11.93;;;589.30;2432.00;;;;;;5094562;28;20049;-79
2023/07/15 05:04:15;;;;;;;17.38;12.15;;;589.30;2432.00;;;;;;5094441;28;20024;-80
2023/07/15 05:06:41;;;;;;;12.60;11.40;;;589.40;2432.00;;;;;;5094130;28;20028;-80
2023/07/15 05:09:08;;;;;;;16.70;11.20;;;589.30;2432.00;;;;;;5093521;28;20047;-80
2023/07/15 05:11:33;;;;;;;14.75;13.05;;;589.30;2432.00;;;;;;5094521;28;20024;-80
2023/07/15 05:13:59;;;;;;;13.45;11.95;;;589.30;2432.00;;;;;;5094180;28;20070;-81
2023/07/15 05:16:25;;;;;;;16.02;12.50;;;589.40;2432.00;;;;;;5094617;28;20036;-81
2023/07/15 05:18:51;;;;;;;15.32;13.73;;;589.40;2432.00;;;;;;5094338;28;20505;-81
2023/07/15 05:21:16;;;;;;;16.15;13.13;;;589.30;2432.00;;;;;;5093943;28;20024;-80
2023/07/15 05:23:43;;;;;;;15.23;12.93;;;589.40;2432.00;;;;;;5094319;28;20028;-82
2023/07/15 05:26:09;;;;;;;14.52;12.82;;;589.40;2432.00;;;;;;5093776;28;20035;-79
2023/07/15 05:28:35;;;;;;;14.88;12.60;;;589.40;2432.00;;;;;;5094575;28;20396;-80
2023/07/15 05:31:02;;;;;;;19.73;12.65;;;589.50;2432.00;;;;;;5111761;28;20073;-80
2023/07/15 05:33:28;;;;;;;14.60;12.23;;;589.60;2432.00;;;;;;5102358;28;20024;-82
2023/07/15 05:35:55;;;;;;;19.90;12.98;;;589.70;2432.00;;;;;;5093812;28;20035;-80
2023/07/15 05:38:23;;;;;;;14.55;11.63;;;614.70;2432.00;;;;;;5093847;28;20028;-81
2023/07/15 05:40:49;;;;;;;16.23;11.90;;;614.50;2432.00;;;;;;5093722;28;20456;-80
2023/07/15 05:43:16;;;;;;;15.73;11.15;;;614.90;2432.00;;;;;;5093987;28;20028;-81
2023/07/15 05:45:41;;;;;;;13.75;12.30;;;614.60;2432.00;;;;;;5093884;28;20123;-82
2023/07/15 05:48:07;;;;;;;14.32;11.30;;;614.50;2432.00;;;;;;5093531;28;20058;-80
2023/07/15 05:50:36;;;;;;;15.02;11.80;;;614.60;2432.00;;;;;;5093120;28;20073;-80
2023/07/15 05:53:03;;;;;;;14.48;11.35;;;614.60;2432.00;;;;;;5094750;28;20020;-82
2023/07/15 05:55:29;;;;;;;14.13;11.10;;;614.70;2432.00;;;;;;5093401;28;20028;-81
2023/07/15 05:57:54;;;;;;;12.75;11.48;;;614.80;2432.00;;;;;;5093703;28;20427;-80
2023/07/15 06:00:20;;;;;;;13.52;11.13;;;614.90;2432.00;;;;;;5093325;28;20028;-81
2023/07/15 06:02:46;;;;;;;15.52;11.52;;;615.10;2432.00;;;;;;5092899;28;20419;-81
2023/07/15 06:05:12;;;;;;;15.52;11.75;;;615.10;2432.00;;;;;;5093259;28;20384;-83
2023/07/15 06:07:38;;;;;;;13.18;10.70;;;615.10;2432.00;;;;;;5093084;28;20384;-82
2023/07/15 06:10:04;;;;;;;14.52;11.02;;;615.20;2432.00;;;;;;5091748;28;20119;-81
2023/07/15 06:12:30;;;;;;;12.98;11.20;;;615.30;2432.00;;;;;;5094624;28;20115;-83
2023/07/15 06:14:56;;;;;;;13.23;11.10;;;640.00;2432.00;;;;;;5093033;28;20027;-82
2023/07/15 06:17:22;;;;;;;15.85;10.93;;;640.20;2432.00;;;;;;5093050;28;20064;-81
2023/07/15 06:19:48;;;;;;;14.25;11.18;;;640.20;2432.00;;;;;;5092919;28;20066;-80
2023/07/15 06:22:14;;;;;;;11.85;10.20;;;640.10;2432.00;;;;;;5092740;28;20025;-80
2023/07/15 06:24:39;;;;;;;12.60;10.48;;;640.40;2432.00;;;;;;5094314;28;20028;-84
2023/07/15 06:27:06;;;;;;;12.35;9.75;;;640.40;2432.00;;;;;;5093867;28;20050;-80
2023/07/15 06:29:31;;;;;;;14.27;10.93;;;640.50;2432.00;;;;;;5093491;28;20105;-82
2023/07/15 06:31:57;;;;;;;15.65;10.18;;;640.60;2432.00;;;;;;5093662;28;20024;-82
2023/07/15 06:34:23;;;;;;;14.18;10.90;;;640.60;2432.00;;;;;;5095738;28;20103;-83
2023/07/15 06:36:49;;;;;;;14.68;10.95;;;640.60;2432.00;;;;;;5093081;28;20094;-82
2023/07/15 06:39:15;;;;;;;12.20;10.63;;;640.50;2432.00;;;;;;5093819;28;20120;-82
2023/07/15 06:41:41;;;;;;;14.30;10.30;;;640.80;2432.00;;;;;;5094696;28;20440;-83
2023/07/15 06:44:07;;;;;;;13.82;9.93;;;640.90;2432.00;;;;;;5093505;28;20128;-82
2023/07/15 06:46:32;;;;;;;10.77;9.68;;;665.60;2432.00;;;;;;5095005;28;20081;-81
2023/07/15 06:48:58;;;;;;;13.60;10.30;;;665.70;2432.00;;;;;;5094485;28;20048;-83
2023/07/15 06:51:24;;;;;;;11.32;9.98;;;665.90;2432.00;;;;;;5095989;28;20060;-82
2023/07/15 06:53:50;;;;;;;11.48;9.90;;;666.00;2432.00;;;;;;5094299;28;20020;-83
2023/07/15 06:56:16;;;;;;;9.85;8.85;;;666.00;2432.00;;;;;;5088496;28;20037;-83
2023/07/15 06:58:41;;;;;;;11.23;10.13;;;666.00;2432.00;;;;;;5087199;28;20029;-83
2023/07/15 07:01:07;;;;;;;10.85;9.60;;;666.20;2432.00;;;;;;5073443;28;20483;-84
2023/07/15 07:03:33;;;;;;;13.77;9.68;;;666.20;2432.00;;;;;;5074289;28;20554;-81
2023/07/15 07:05:59;;;;;;;11.07;9.98;;;666.20;2432.00;;;;;;5076491;28;20033;-82
2023/07/15 07:08:25;;;;;;;11.57;10.00;;;666.30;2432.00;;;;;;5079896;28;20032;-79
2023/07/15 07:10:51;;;;;;;14.45;8.80;;;666.50;2432.00;;;;;;5091937;28;20044;-81
2023/07/15 07:13:20;;;;;;;16.10;9.35;;;666.50;2432.00;;;;;;5092247;28;20464;-82
2023/07/15 07:15:47;;;;;;;9.52;8.45;;;666.50;2432.00;;;;;;5092686;28;20032;-81
2023/07/15 07:18:13;;;;;;;16.58;8.27;;;691.30;2432.00;;;;;;5093492;28;20537;-80
2023/07/15 07:20:39;;;;;;;11.25;9.15;;;691.60;2432.00;;;;;;5094232;28;20020;-82
2023/07/15 07:23:05;;;;;;;13.45;8.10;;;691.70;2432.00;;;;;;5097302;28;20026;-80
2023/07/15 07:25:31;;;;;;;13.02;9.02;;;691.80;2432.00;;;;;;5097310;28;20127;-81
2023/07/15 07:27:57;;;;;;;16.45;9.02;;;692.10;2432.00;;;;;;5097821;28;20033;-80
2023/07/15 07:30:23;;;;;;;10.82;8.05;;;716.80;2432.00;;;;;;5090590;28;20430;-84
2023/07/15 07:32:49;;;;;;;9.35;7.88;;;717.10;2432.00;;;;;;5092762;28;20029;-84
2023/07/15 07:35:16;;;;;;;8.40;7.50;;;716.90;2432.00;;;;;;5092635;28;20066;-82
2023/07/15 07:37:42;;;;;;;14.63;7.82;;;717.10;2432.00;;;;;;5092326;28;20488;-84
2023/07/15 07:40:11;;;;;;;12.98;7.03;;;717.20;2432.00;;;;;;5092934;28;20123;-82
2023/07/15 07:42:37;;;;;;;10.70;7.57;;;717.30;2432.00;;;;;;5093041;28;20025;-83
2023/07/15 07:45:16;;;;;;;12.35;7.53;;;717.50;2432.00;;;;;;5093030;28;20032;-82
2023/07/15 07:47:42;;;;;;;16.00;7.72;;;717.70;2432.00;;;;;;5092612;28;20064;-84
2023/07/15 07:50:09;;;;;;;11.93;7.10;;;717.70;2432.00;;;;;;5092227;28;20055;-82
2023/07/15 07:52:34;;;;;;;11.20;8.00;;;742.50;2432.00;;;;;;5092741;28;20024;-83
2023/07/15 07:55:01;;;;;;;9.25;6.75;;;742.60;2432.00;;;;;;5092451;28;20025;-82
2023/07/15 07:57:27;;;;;;;13.10;6.45;;;742.60;2432.00;;;;;;5092631;28;20036;-82
2023/07/15 07:59:53;;;;;;;9.75;7.03;;;742.60;2432.00;;;;;;5092850;28;20097;-82
2023/07/15 08:02:18;;;;;;;8.35;5.78;;;742.50;2432.00;;;;;;5076745;28;20090;-83
2023/07/15 08:04:48;;;;;;;10.13;7.78;;;742.50;2432.00;;;;;;5092716;28;20116;-83
2023/07/15 08:07:14;;;;;;;10.15;8.15;;;742.40;2432.00;;;;;;5076992;28;20074;-83
2023/07/15 08:09:40;;;;;;;12.52;7.95;;;742.60;2432.00;;;;;;5095153;28;20052;-84
2023/07/15 08:12:08;;;;;;;9.27;7.60;;;743.00;2432.00;;;;;;5095985;28;20077;-83
2023/07/15 08:14:34;;;;;;;10.48;8.10;;;;;;;;;;5092383;28;20023;-84
2023/07/15 08:17:00;;;;;;;26.85;24.20;;;;;;;;;;5099438;28;20020;-85
2023/07/15 08:19:27;;;;;;;14.85;12.75;;;;;;;;;;5085706;28;20021;-83
2023/07/15 08:21:52;;;;;;;18.40;16.15;;;743.30;2432.00;;;;;;5094273;28;20107;-83
2023/07/15 08:24:18;;;;;;;35.00;31.23;;;742.90;2432.00;;;;;;5099981;28;20052;-85
2023/07/15 08:26:44;;;;;;;18.92;15.38;;;743.10;2432.00;;;;;;5101746;28;20082;-84
2023/07/15 08:29:10;;;;;;;11.10;8.60;;;768.00;2432.00;;;;;;5082804;28;20362;-86
2023/07/15 08:31:35;;;;;;;17.40;14.75;;;768.30;2432.00;;;;;;5090624;28;20109;-83
2023/07/15 08:34:03;;;;;;;16.38;14.68;;;768.50;2432.00;;;;;;5079738;28;20032;-84
2023/07/15 08:36:29;;;;;;;19.90;16.27;;;768.60;2432.00;;;;;;5088903;28;20028;-85
2023/07/15 08:38:54;;;;;;;10.40;7.47;;;768.70;2432.00;;;;;;5075217;28;20021;-83
2023/07/15 08:41:26;;;;;;;9.75;7.63;;;793.60;2432.00;;;;;;5096118;28;20050;-86
2023/07/15 08:43:53;;;;;;;8.80;6.90;;;793.70;2432.00;;;;;;5095082;28;20024;-84
2023/07/15 08:46:26;;;;;;;10.88;6.80;;;793.80;2432.00;;;;;;5094856;28;20024;-86
2023/07/15 08:48:53;;;;;;;9.90;6.60;;;794.00;2432.00;;;;;;5094896;28;20469;-85
2023/07/15 08:51:22;;;;;;;11.48;6.32;;;794.00;2432.00;;;;;;5094708;28;20034;-83
2023/07/15 08:53:48;;;;;;;9.60;7.00;;;768.70;2432.00;;;;;;5095078;28;20035;-83
2023/07/15 08:56:15;;;;;;;9.10;6.50;;;794.10;2432.00;;;;;;5091092;28;20120;-84
2023/07/15 08:58:42;;;;;;;12.07;7.50;;;793.70;2432.00;;;;;;5074768;28;20056;-83
2023/07/15 09:01:08;;;;;;;9.35;6.38;;;793.90;2432.00;;;;;;5074652;28;20056;-82
2023/07/15 09:03:33;;;;;;;9.77;6.47;;;794.00;2432.00;;;;;;5074145;28;20067;-83
2023/07/15 09:06:01;;;;;;;9.82;6.10;;;793.70;2432.00;;;;;;5086326;28;20054;-84
2023/07/15 09:08:27;;;;;;;15.55;7.65;;;793.90;2432.00;;;;;;5094584;28;20066;-84
2023/07/15 09:10:54;;;;;;;12.15;8.75;;;794.00;2432.00;;;;;;5093612;28;20052;-84
2023/07/15 09:13:24;;;;;;;14.30;7.32;;;794.00;2432.00;;;;;;5092482;28;20048;-83
2023/07/15 09:15:51;;;;;;;7.43;6.50;;;794.50;2432.00;;;;;;5093559;28;20081;-84
2023/07/15 09:18:18;;;;;;;10.63;7.55;;;819.30;2432.00;;;;;;5094303;28;20032;-84
2023/07/15 09:20:44;;;;;;;6.85;5.80;;;819.50;2432.00;;;;;;5094755;28;20361;-85
2023/07/15 09:23:11;;;;;;;8.38;6.20;;;820.00;2432.00;;;;;;5094685;28;20048;-86
2023/07/15 09:25:37;;;;;;;9.90;6.40;;;820.00;2432.00;;;;;;5093703;28;20040;-85
2023/07/15 09:28:08;;;;;;;12.40;7.72;;;819.90;2432.00;;;;;;5096101;28;20016;-82
2023/07/15 09:30:38;;;;;;;12.10;6.22;;;820.00;2432.00;;;;;;5093780;28;20031;-83
2023/07/15 09:33:04;;;;;;;7.82;6.35;;;844.90;2432.00;;;;;;5094278;28;20081;-81
2023/07/15 09:35:36;;;;;;;10.02;6.50;;;845.10;2406.40;;;;;;5098634;28;20024;-81
2023/07/15 09:38:03;;;;;;;11.60;6.55;;;845.20;2380.80;;;;;;5100995;28;20027;-82
2023/07/15 09:40:41;;;;;;;7.85;5.25;;;845.20;2355.20;;;;;;5094089;28;20028;-82
2023/07/15 09:43:07;;;;;;;8.93;5.32;;;845.40;2355.20;;;;;;5093465;28;20055;-84
2023/07/15 09:45:34;;;;;;;9.48;5.97;;;845.10;2329.60;;;;;;5094779;28;20063;-81
2023/07/15 09:48:03;;;;;;;10.85;6.55;;;845.20;2355.20;;;;;;5093887;28;20029;-82
2023/07/15 09:50:31;;;;;;;10.65;7.88;;;845.40;2278.40;;;;;;5093077;28;20024;-82
2023/07/15 09:52:59;;;;;;;11.05;5.82;;;845.60;2304.00;;;;;;5092742;28;20028;-83
2023/07/15 09:55:26;;;;;;;9.75;5.72;;;845.70;2278.40;;;;;;5093662;28;20024;-81
2023/07/15 09:57:58;;;;;;;11.07;6.10;;;845.70;2278.40;;;;;;5094172;28;20032;-84
2023/07/15 10:00:27;;;;;;;8.18;5.93;;;870.40;2278.40;;;;;;5093714;28;20031;-81
2023/07/15 10:02:58;;;;;;;9.82;6.72;;;870.50;2278.40;;;;;;5095071;28;20042;-83
2023/07/15 10:05:26;;;;;;;6.97;5.72;;;870.70;2278.40;;;;;;5093971;28;20031;-84
2023/07/15 10:07:53;;;;;;;11.30;6.80;;;845.50;2278.40;;;;;;5093638;28;20035;-83
2023/07/15 10:10:21;;;;;;;9.52;5.88;;;870.60;2278.40;;;;;;5092884;28;20039;-82
2023/07/15 10:12:48;;;;;;;9.90;7.05;;;870.90;2252.80;;;;;;5092902;28;20025;-82
2023/07/15 10:15:15;;;;;;;7.47;5.88;;;871.10;2201.60;;;;;;5094319;28;20388;-83
2023/07/15 10:17:41;;;;;;;10.63;5.85;;;871.30;2150.40;;;;;;5093689;28;20513;-81
2023/07/15 10:20:18;;;;;;;9.40;6.05;;;871.30;2150.40;;;;;;5090263;28;20028;-84
2023/07/15 10:22:45;;;;;;;8.90;6.82;;;896.20;2176.00;;;;;;5058151;28;20078;-86
2023/07/15 10:25:15;;;;;;;12.18;5.93;;;896.20;2099.20;;;;;;5057258;28;20032;-84
2023/07/15 10:27:41;;;;;;;9.55;6.53;;;871.10;2150.40;;;;;;5073166;28;20555;-84
2023/07/15 10:30:29;;;;;;;10.05;6.95;;;871.10;2150.40;;;;;;5077171;28;20392;-83
2023/07/15 10:33:01;;;;;;;12.43;9.13;;;896.20;2124.80;;;;;;5073532;28;20035;-85
2023/07/15 10:35:33;;;;;;;11.35;7.75;;;896.50;2099.20;;;;;;5073545;28;20448;-83
2023/07/15 10:38:23;;;;;;;13.15;7.93;;;896.80;2048.00;;;;;;5073423;28;20024;-85
2023/07/15 10:40:57;;;;;;;10.73;6.43;;;896.90;2073.60;;;;;;5073064;28;20059;-85
2023/07/15 10:43:35;;;;;;;10.35;7.22;;;896.80;2048.00;;;;;;5073414;28;20060;-85
2023/07/15 10:46:06;;;;;;;9.25;6.88;;;896.90;2048.00;;;;;;5073206;28;20127;-84
2023/07/15 10:48:33;;;;;;;9.88;7.35;;;921.60;2073.60;;;;;;5072996;28;20035;-84
2023/07/15 10:51:11;;;;;;;10.80;7.18;;;921.70;2073.60;;;;;;5106118;28;20044;-84
2023/07/15 10:53:37;;;;;;;11.48;7.43;;;922.00;2048.00;;;;;;5093252;28;20020;-84
2023/07/15 10:56:05;;;;;;;8.32;5.85;;;922.10;2022.40;;;;;;5093405;28;20028;-85
2023/07/15 10:58:34;;;;;;;8.98;6.80;;;921.80;1996.80;;;;;;5094715;28;20027;-85
2023/07/15 11:01:06;;;;;;;10.88;6.00;;;922.00;2022.40;;;;;;5076745;28;20056;-85
2023/07/15 11:03:36;;;;;;;9.90;6.38;;;922.20;2048.00;;;;;;5091209;28;20028;-84
2023/07/15 11:06:02;;;;;;;9.80;5.95;;;922.30;2022.40;;;;;;5094358;28;20055;-85
2023/07/15 11:08:30;;;;;;;8.32;5.88;;;922.50;2022.40;;;;;;5092919;28;20070;-85
2023/07/15 11:11:00;;;;;;;13.85;7.57;;;922.40;1996.80;;;;;;5092582;28;20523;-83
2023/07/15 11:13:26;;;;;;;10.00;8.20;;;947.20;2022.40;;;;;;5093036;28;20028;-83
2023/07/15 11:15:53;;;;;;;11.75;7.80;;;947.30;1996.80;;;;;;5092848;28;20740;-82
2023/07/15 11:18:20;;;;;;;11.02;7.75;;;947.60;1971.20;;;;;;5092449;28;20024;-81
2023/07/15 11:20:47;;;;;;;11.77;6.80;;;947.70;1971.20;;;;;;5092645;28;20032;-82
2023/07/15 11:23:14;;;;;;;10.50;6.25;;;947.80;1920.00;;;;;;5092516;28;20024;-82
2023/07/15 11:25:40;;;;;;;11.65;6.68;;;947.60;1920.00;;;;;;5092832;28;20044;-83
2023/07/15 11:28:06;;;;;;;9.23;7.32;;;947.50;1920.00;;;;;;5112809;28;20020;-82
2023/07/15 11:30:45;;;;;;;10.60;6.00;;;947.70;1971.20;;;;;;5098549;28;20062;-86
2023/07/15 11:33:11;;;;;;;9.52;7.22;;;947.80;1920.00;;;;;;5092251;28;20020;-83
2023/07/15 11:35:39;;;;;;;10.73;5.95;;;947.90;1945.60;;;;;;5094123;28;20113;-83
2023/07/15 11:38:11;;;;;;;17.25;7.32;;;948.00;1920.00;;;;;;5093651;28;20020;-81
2023/07/15 11:40:49;;;;;;;12.30;8.65;;;948.10;1920.00;;;;;;5092272;28;20055;-84
2023/07/15 11:43:19;;;;;;;11.23;6.10;;;972.90;1920.00;;;;;;5091771;28;20020;-81
2023/07/15 11:45:46;;;;;;;11.35;6.70;;;948.10;1843.20;;;;;;5091761;28;20032;-83
2023/07/15 11:48:12;;;;;;;11.80;6.28;;;948.10;1894.40;;;;;;5092626;28;20085;-83
2023/07/15 11:50:38;;;;;;;10.85;5.97;;;973.00;1894.40;;;;;;5091827;28;20387;-84
2023/07/15 11:53:03;;;;;;;11.55;7.35;;;973.20;1894.40;;;;;;5091915;28;20119;-84
2023/07/15 11:55:31;;;;;;;14.52;6.65;;;973.40;1868.80;;;;;;5091694;28;20024;-84
2023/07/15 11:57:56;;;;;;;12.32;7.55;;;972.80;1843.20;;;;;;5091808;28;20119;-82
2023/07/15 12:00:33;;;;;;;11.07;7.35;;;973.40;1843.20;;;;;;5091664;28;20108;-81
2023/07/15 12:03:10;;;;;;;12.23;9.15;;;973.10;1843.20;;;;;;5107979;28;20024;-82
2023/07/15 12:05:39;;;;;;;14.70;7.40;;;973.40;1817.60;;;;;;5089923;28;20464;-81